sensor_id;sensor_type;location;lat;lon;timestamp;temperature;humidity
18690;DHT22;9782;52.930;15.562;2022-11-25T00:01:04;3.70;99.90
18690;DHT22;9782;52.930;15.562;2022-11-25T00:03:32;3.80;99.90
18690;DHT22;9782;52.930;15.562;2022-11-25T00:06:07;3.80;1.00
18690;DHT22;9782;52.930;15.562;2022-11-25T00:08:35;3.70;1.00
18690;DHT22;9782;52.930;15.562;2022-11-25T00:11:02;3.80;1.00
18690;DHT22;9782;52.930;15.562;2022-11-25T00:13:29;3.80;1.00
18690;DHT22;9782;52.930;15.562;2022-11-25T00:16:01;3.80;1.00
18690;DHT22;9782;52.930;15.562;2022-11-25T00:18:29;3.80;1.00
18690;DHT22;9782;52.930;15.562;2022-11-25T00:20:56;3.80;1.00
18690;DHT22;9782;52.930;15.562;2022-11-25T00:23:23;3.80;1.00
18690;DHT22;9782;52.930;15.562;2022-11-25T00:25:50;3.80;1.00
18690;DHT22;9782;52.930;15.562;2022-11-25T00:28:17;3.80;1.00
18690;DHT22;9782;52.930;15.562;2022-11-25T00:30:44;3.90;1.00
18690;DHT22;9782;52.930;15.562;2022-11-25T00:33:13;3.80;1.00
18690;DHT22;9782;52.930;15.562;2022-11-25T00:35:40;3.80;1.00
18690;DHT22;9782;52.930;15.562;2022-11-25T00:38:07;3.90;1.00
18690;DHT22;9782;52.930;15.562;2022-11-25T00:40:34;3.90;1.00
18690;DHT22;9782;52.930;15.562;2022-11-25T00:43:01;3.90;1.00
18690;DHT22;9782;52.930;15.562;2022-11-25T00:45:45;4.00;1.00
18690;DHT22;9782;52.930;15.562;2022-11-25T00:48:13;3.90;1.00
18690;DHT22;9782;52.930;15.562;2022-11-25T00:50:41;4.00;1.00
18690;DHT22;9782;52.930;15.562;2022-11-25T00:53:09;4.00;1.00
18690;DHT22;9782;52.930;15.562;2022-11-25T00:55:36;4.00;1.00
18690;DHT22;9782;52.930;15.562;2022-11-25T00:58:16;4.00;99.90
18690;DHT22;9782;52.930;15.562;2022-11-25T01:00:43;4.00;99.90
18690;DHT22;9782;52.930;15.562;2022-11-25T01:03:11;4.00;1.00
18690;DHT22;9782;52.930;15.562;2022-11-25T01:05:39;4.00;1.00
18690;DHT22;9782;52.930;15.562;2022-11-25T01:08:06;4.00;1.00
18690;DHT22;9782;52.930;15.562;2022-11-25T01:10:33;4.00;1.00
18690;DHT22;9782;52.930;15.562;2022-11-25T01:13:00;4.00;1.00
18690;DHT22;9782;52.930;15.562;2022-11-25T01:15:27;4.10;1.00
18690;DHT22;9782;52.930;15.562;2022-11-25T01:17:54;4.10;1.00
18690;DHT22;9782;52.930;15.562;2022-11-25T01:20:21;4.10;99.90
18690;DHT22;9782;52.930;15.562;2022-11-25T01:22:51;4.00;99.90
18690;DHT22;9782;52.930;15.562;2022-11-25T01:25:18;4.00;1.00
18690;DHT22;9782;52.930;15.562;2022-11-25T01:27:45;4.00;99.90
18690;DHT22;9782;52.930;15.562;2022-11-25T01:30:12;3.90;99.90
18690;DHT22;9782;52.930;15.562;2022-11-25T01:32:39;3.90;1.00
18690;DHT22;9782;52.930;15.562;2022-11-25T01:35:07;3.80;1.00
18690;DHT22;9782;52.930;15.562;2022-11-25T01:37:34;3.80;1.00
18690;DHT22;9782;52.930;15.562;2022-11-25T01:40:03;3.80;1.00
18690;DHT22;9782;52.930;15.562;2022-11-25T01:42:30;3.80;1.00
18690;DHT22;9782;52.930;15.562;2022-11-25T01:45:32;3.80;1.00
18690;DHT22;9782;52.930;15.562;2022-11-25T01:48:02;3.80;1.00
18690;DHT22;9782;52.930;15.562;2022-11-25T01:50:32;3.80;1.00
18690;DHT22;9782;52.930;15.562;2022-11-25T01:53:04;3.80;1.00
18690;DHT22;9782;52.930;15.562;2022-11-25T01:55:35;3.80;1.00
18690;DHT22;9782;52.930;15.562;2022-11-25T01:58:05;3.80;1.00
18690;DHT22;9782;52.930;15.562;2022-11-25T02:00:33;3.80;34.90
18690;DHT22;9782;52.930;15.562;2022-11-25T02:03:00;3.80;1.00
18690;DHT22;9782;52.930;15.562;2022-11-25T02:05:34;3.90;1.00
18690;DHT22;9782;52.930;15.562;2022-11-25T02:08:03;3.90;1.00
18690;DHT22;9782;52.930;15.562;2022-11-25T02:10:34;4.00;1.00
18690;DHT22;9782;52.930;15.562;2022-11-25T02:13:02;4.00;1.00
18690;DHT22;9782;52.930;15.562;2022-11-25T02:15:30;4.00;1.00
18690;DHT22;9782;52.930;15.562;2022-11-25T02:17:59;4.00;1.00
18690;DHT22;9782;52.930;15.562;2022-11-25T02:20:26;4.00;1.00
18690;DHT22;9782;52.930;15.562;2022-11-25T02:22:59;3.90;1.00
18690;DHT22;9782;52.930;15.562;2022-11-25T02:25:31;3.90;1.00
18690;DHT22;9782;52.930;15.562;2022-11-25T02:28:02;4.00;1.00
18690;DHT22;9782;52.930;15.562;2022-11-25T02:30:30;4.00;1.00
18690;DHT22;9782;52.930;15.562;2022-11-25T02:32:58;4.00;1.00
18690;DHT22;9782;52.930;15.562;2022-11-25T02:35:30;4.00;1.00
18690;DHT22;9782;52.930;15.562;2022-11-25T02:38:02;4.00;1.00
18690;DHT22;9782;52.930;15.562;2022-11-25T02:40:35;4.00;1.00
18690;DHT22;9782;52.930;15.562;2022-11-25T02:43:03;4.00;1.00
18690;DHT22;9782;52.930;15.562;2022-11-25T02:45:39;4.00;1.00
18690;DHT22;9782;52.930;15.562;2022-11-25T02:48:08;4.00;1.00
18690;DHT22;9782;52.930;15.562;2022-11-25T02:50:35;4.00;1.00
18690;DHT22;9782;52.930;15.562;2022-11-25T02:53:02;4.00;1.00
18690;DHT22;9782;52.930;15.562;2022-11-25T02:55:31;3.90;1.00
18690;DHT22;9782;52.930;15.562;2022-11-25T02:57:58;3.90;1.00
18690;DHT22;9782;52.930;15.562;2022-11-25T03:00:25;3.90;99.90
18690;DHT22;9782;52.930;15.562;2022-11-25T03:02:52;3.90;99.90
18690;DHT22;9782;52.930;15.562;2022-11-25T03:05:20;3.90;99.90
18690;DHT22;9782;52.930;15.562;2022-11-25T03:07:47;4.00;99.90
18690;DHT22;9782;52.930;15.562;2022-11-25T03:10:14;4.00;99.90
18690;DHT22;9782;52.930;15.562;2022-11-25T03:12:43;3.90;99.90
18690;DHT22;9782;52.930;15.562;2022-11-25T03:15:10;3.90;99.90
18690;DHT22;9782;52.930;15.562;2022-11-25T03:17:37;3.90;99.90
18690;DHT22;9782;52.930;15.562;2022-11-25T03:20:06;3.90;99.90
18690;DHT22;9782;52.930;15.562;2022-11-25T03:22:33;3.90;99.90
18690;DHT22;9782;52.930;15.562;2022-11-25T03:25:01;3.90;99.90
18690;DHT22;9782;52.930;15.562;2022-11-25T03:27:28;3.80;99.90
18690;DHT22;9782;52.930;15.562;2022-11-25T03:29:56;3.80;99.90
18690;DHT22;9782;52.930;15.562;2022-11-25T03:32:23;3.80;1.00
18690;DHT22;9782;52.930;15.562;2022-11-25T03:34:50;3.80;1.00
18690;DHT22;9782;52.930;15.562;2022-11-25T03:37:17;3.80;1.00
18690;DHT22;9782;52.930;15.562;2022-11-25T03:39:45;3.80;1.00
18690;DHT22;9782;52.930;15.562;2022-11-25T03:42:12;3.80;1.00
18690;DHT22;9782;52.930;15.562;2022-11-25T03:44:39;3.80;1.00
18690;DHT22;9782;52.930;15.562;2022-11-25T03:47:08;3.80;1.00
18690;DHT22;9782;52.930;15.562;2022-11-25T03:49:35;3.80;1.00
18690;DHT22;9782;52.930;15.562;2022-11-25T03:52:02;3.80;99.90
18690;DHT22;9782;52.930;15.562;2022-11-25T03:54:29;3.80;1.00
18690;DHT22;9782;52.930;15.562;2022-11-25T03:56:57;3.70;1.00
18690;DHT22;9782;52.930;15.562;2022-11-25T03:59:24;3.70;1.00
18690;DHT22;9782;52.930;15.562;2022-11-25T04:01:52;3.70;1.00
18690;DHT22;9782;52.930;15.562;2022-11-25T04:04:21;3.80;1.00
18690;DHT22;9782;52.930;15.562;2022-11-25T04:06:48;3.80;1.00
18690;DHT22;9782;52.930;15.562;2022-11-25T04:09:15;3.80;1.00
18690;DHT22;9782;52.930;15.562;2022-11-25T04:11:42;3.80;1.00
18690;DHT22;9782;52.930;15.562;2022-11-25T04:14:26;3.70;1.00
18690;DHT22;9782;52.930;15.562;2022-11-25T04:16:53;3.80;1.00
18690;DHT22;9782;52.930;15.562;2022-11-25T04:19:21;3.80;1.00
18690;DHT22;9782;52.930;15.562;2022-11-25T04:21:48;3.80;1.00
18690;DHT22;9782;52.930;15.562;2022-11-25T04:24:15;3.80;1.00
18690;DHT22;9782;52.930;15.562;2022-11-25T04:26:43;3.80;1.00
18690;DHT22;9782;52.930;15.562;2022-11-25T04:29:10;3.90;1.00
18690;DHT22;9782;52.930;15.562;2022-11-25T04:31:37;3.90;1.00
18690;DHT22;9782;52.930;15.562;2022-11-25T04:34:04;3.90;99.90
18690;DHT22;9782;52.930;15.562;2022-11-25T04:36:33;3.90;99.90
18690;DHT22;9782;52.930;15.562;2022-11-25T04:39:00;3.80;99.90
18690;DHT22;9782;52.930;15.562;2022-11-25T04:41:27;3.80;99.90
18690;DHT22;9782;52.930;15.562;2022-11-25T04:43:54;3.80;99.90
18690;DHT22;9782;52.930;15.562;2022-11-25T04:46:23;3.80;99.90
18690;DHT22;9782;52.930;15.562;2022-11-25T04:48:51;3.80;99.90
18690;DHT22;9782;52.930;15.562;2022-11-25T04:51:18;3.80;99.90
18690;DHT22;9782;52.930;15.562;2022-11-25T04:53:46;3.70;99.90
18690;DHT22;9782;52.930;15.562;2022-11-25T04:56:16;3.70;99.90
18690;DHT22;9782;52.930;15.562;2022-11-25T04:58:43;3.70;99.90
18690;DHT22;9782;52.930;15.562;2022-11-25T05:01:28;3.70;99.90
18690;DHT22;9782;52.930;15.562;2022-11-25T05:03:55;3.70;99.90
18690;DHT22;9782;52.930;15.562;2022-11-25T05:06:22;3.70;99.90
18690;DHT22;9782;52.930;15.562;2022-11-25T05:08:50;3.70;1.00
18690;DHT22;9782;52.930;15.562;2022-11-25T05:11:17;3.70;99.90
18690;DHT22;9782;52.930;15.562;2022-11-25T05:13:44;3.70;1.00
18690;DHT22;9782;52.930;15.562;2022-11-25T05:16:11;3.70;1.00
18690;DHT22;9782;52.930;15.562;2022-11-25T05:18:39;3.80;1.00
18690;DHT22;9782;52.930;15.562;2022-11-25T05:21:06;3.80;1.00
18690;DHT22;9782;52.930;15.562;2022-11-25T05:23:34;3.90;1.00
18690;DHT22;9782;52.930;15.562;2022-11-25T05:26:03;4.00;99.90
18690;DHT22;9782;52.930;15.562;2022-11-25T05:28:30;4.00;99.90
18690;DHT22;9782;52.930;15.562;2022-11-25T05:30:57;3.90;99.90
18690;DHT22;9782;52.930;15.562;2022-11-25T05:33:24;4.00;99.90
18690;DHT22;9782;52.930;15.562;2022-11-25T05:35:56;4.00;99.90
18690;DHT22;9782;52.930;15.562;2022-11-25T05:38:24;4.00;99.90
18690;DHT22;9782;52.930;15.562;2022-11-25T05:40:51;4.00;99.90
18690;DHT22;9782;52.930;15.562;2022-11-25T05:43:20;4.00;99.90
18690;DHT22;9782;52.930;15.562;2022-11-25T05:45:47;4.00;99.90
18690;DHT22;9782;52.930;15.562;2022-11-25T05:48:14;4.00;99.90
18690;DHT22;9782;52.930;15.562;2022-11-25T05:50:41;4.10;99.90
18690;DHT22;9782;52.930;15.562;2022-11-25T05:53:08;4.10;99.90
18690;DHT22;9782;52.930;15.562;2022-11-25T05:55:36;4.10;99.90
18690;DHT22;9782;52.930;15.562;2022-11-25T05:58:03;4.10;99.90
18690;DHT22;9782;52.930;15.562;2022-11-25T06:00:32;4.10;86.10
18690;DHT22;9782;52.930;15.562;2022-11-25T06:02:59;4.10;1.00
18690;DHT22;9782;52.930;15.562;2022-11-25T06:05:26;4.10;1.00
18690;DHT22;9782;52.930;15.562;2022-11-25T06:07:53;4.10;1.00
18690;DHT22;9782;52.930;15.562;2022-11-25T06:10:20;4.10;1.00
18690;DHT22;9782;52.930;15.562;2022-11-25T06:12:47;4.10;1.00
18690;DHT22;9782;52.930;15.562;2022-11-25T06:15:15;4.00;1.00
18690;DHT22;9782;52.930;15.562;2022-11-25T06:17:43;4.00;1.00
18690;DHT22;9782;52.930;15.562;2022-11-25T06:20:10;3.90;7.00
18690;DHT22;9782;52.930;15.562;2022-11-25T06:22:37;3.90;42.10
18690;DHT22;9782;52.930;15.562;2022-11-25T06:25:06;3.90;99.90
18690;DHT22;9782;52.930;15.562;2022-11-25T06:27:33;3.90;99.90
18690;DHT22;9782;52.930;15.562;2022-11-25T06:30:00;3.90;99.90
18690;DHT22;9782;52.930;15.562;2022-11-25T06:32:27;3.90;99.90
18690;DHT22;9782;52.930;15.562;2022-11-25T06:34:56;4.00;99.90
18690;DHT22;9782;52.930;15.562;2022-11-25T06:37:23;4.00;99.90
18690;DHT22;9782;52.930;15.562;2022-11-25T06:39:50;4.00;99.90
18690;DHT22;9782;52.930;15.562;2022-11-25T06:42:17;4.00;99.90
18690;DHT22;9782;52.930;15.562;2022-11-25T06:44:44;4.00;99.90
18690;DHT22;9782;52.930;15.562;2022-11-25T06:47:11;4.00;84.20
18690;DHT22;9782;52.930;15.562;2022-11-25T06:49:38;3.90;99.90
18690;DHT22;9782;52.930;15.562;2022-11-25T06:52:07;3.90;99.90
18690;DHT22;9782;52.930;15.562;2022-11-25T06:54:34;3.90;99.90
18690;DHT22;9782;52.930;15.562;2022-11-25T06:57:05;3.90;99.90
18690;DHT22;9782;52.930;15.562;2022-11-25T06:59:33;4.00;1.00
18690;DHT22;9782;52.930;15.562;2022-11-25T07:02:00;4.00;99.90
18690;DHT22;9782;52.930;15.562;2022-11-25T07:04:28;4.00;99.90
18690;DHT22;9782;52.930;15.562;2022-11-25T07:06:55;4.10;99.90
18690;DHT22;9782;52.930;15.562;2022-11-25T07:09:23;4.10;99.90
18690;DHT22;9782;52.930;15.562;2022-11-25T07:11:50;4.10;99.90
18690;DHT22;9782;52.930;15.562;2022-11-25T07:14:17;4.10;99.90
18690;DHT22;9782;52.930;15.562;2022-11-25T07:16:44;4.20;99.90
18690;DHT22;9782;52.930;15.562;2022-11-25T07:19:14;4.20;99.90
18690;DHT22;9782;52.930;15.562;2022-11-25T07:21:42;4.30;99.90
18690;DHT22;9782;52.930;15.562;2022-11-25T07:24:11;4.30;28.50
18690;DHT22;9782;52.930;15.562;2022-11-25T07:26:41;4.30;16.10
18690;DHT22;9782;52.930;15.562;2022-11-25T07:29:11;4.40;1.00
18690;DHT22;9782;52.930;15.562;2022-11-25T07:31:39;4.40;1.00
18690;DHT22;9782;52.930;15.562;2022-11-25T07:34:13;4.40;1.00
18690;DHT22;9782;52.930;15.562;2022-11-25T07:36:42;4.40;1.00
18690;DHT22;9782;52.930;15.562;2022-11-25T07:39:12;4.40;1.00
18690;DHT22;9782;52.930;15.562;2022-11-25T07:41:42;4.40;1.00
18690;DHT22;9782;52.930;15.562;2022-11-25T07:44:11;4.40;41.00
18690;DHT22;9782;52.930;15.562;2022-11-25T07:46:40;4.40;97.50
18690;DHT22;9782;52.930;15.562;2022-11-25T07:49:10;4.50;99.90
18690;DHT22;9782;52.930;15.562;2022-11-25T07:51:40;4.50;99.90
18690;DHT22;9782;52.930;15.562;2022-11-25T07:54:08;4.50;1.00
18690;DHT22;9782;52.930;15.562;2022-11-25T07:56:37;4.60;1.00
18690;DHT22;9782;52.930;15.562;2022-11-25T07:59:13;4.60;1.00
18690;DHT22;9782;52.930;15.562;2022-11-25T08:01:41;4.60;1.00
18690;DHT22;9782;52.930;15.562;2022-11-25T08:04:09;4.60;1.00
18690;DHT22;9782;52.930;15.562;2022-11-25T08:06:38;4.70;1.00
18690;DHT22;9782;52.930;15.562;2022-11-25T08:09:05;4.70;1.00
18690;DHT22;9782;52.930;15.562;2022-11-25T08:11:34;4.70;1.00
18690;DHT22;9782;52.930;15.562;2022-11-25T08:14:02;4.80;1.00
18690;DHT22;9782;52.930;15.562;2022-11-25T08:16:31;4.80;1.00
18690;DHT22;9782;52.930;15.562;2022-11-25T08:19:00;4.80;1.00
18690;DHT22;9782;52.930;15.562;2022-11-25T08:21:28;4.80;1.00
18690;DHT22;9782;52.930;15.562;2022-11-25T08:23:55;4.80;1.00
18690;DHT22;9782;52.930;15.562;2022-11-25T08:26:25;4.80;1.00
18690;DHT22;9782;52.930;15.562;2022-11-25T08:28:55;4.80;1.00
18690;DHT22;9782;52.930;15.562;2022-11-25T08:31:24;4.80;1.00
18690;DHT22;9782;52.930;15.562;2022-11-25T08:33:53;4.90;1.00
18690;DHT22;9782;52.930;15.562;2022-11-25T08:36:21;4.90;1.00
18690;DHT22;9782;52.930;15.562;2022-11-25T08:38:51;5.00;1.00
18690;DHT22;9782;52.930;15.562;2022-11-25T08:41:20;5.10;1.00
18690;DHT22;9782;52.930;15.562;2022-11-25T08:43:48;5.10;1.00
18690;DHT22;9782;52.930;15.562;2022-11-25T08:46:17;5.10;1.00
18690;DHT22;9782;52.930;15.562;2022-11-25T08:48:45;5.20;1.00
18690;DHT22;9782;52.930;15.562;2022-11-25T08:51:16;5.30;1.00
18690;DHT22;9782;52.930;15.562;2022-11-25T08:53:44;5.30;1.00
18690;DHT22;9782;52.930;15.562;2022-11-25T08:56:12;5.40;1.00
18690;DHT22;9782;52.930;15.562;2022-11-25T08:58:40;5.40;1.00
18690;DHT22;9782;52.930;15.562;2022-11-25T09:01:07;5.50;1.00
18690;DHT22;9782;52.930;15.562;2022-11-25T09:03:37;5.50;99.90
18690;DHT22;9782;52.930;15.562;2022-11-25T09:06:05;5.50;99.90
18690;DHT22;9782;52.930;15.562;2022-11-25T09:08:34;5.50;99.90
18690;DHT22;9782;52.930;15.562;2022-11-25T09:11:02;5.60;99.90
18690;DHT22;9782;52.930;15.562;2022-11-25T09:13:29;5.60;99.90
18690;DHT22;9782;52.930;15.562;2022-11-25T09:15:56;5.60;99.90
18690;DHT22;9782;52.930;15.562;2022-11-25T09:18:27;5.60;99.90
18690;DHT22;9782;52.930;15.562;2022-11-25T09:20:55;5.60;99.90
18690;DHT22;9782;52.930;15.562;2022-11-25T09:23:23;5.60;99.90
18690;DHT22;9782;52.930;15.562;2022-11-25T09:25:53;5.70;99.90
18690;DHT22;9782;52.930;15.562;2022-11-25T09:28:20;5.80;1.00
18690;DHT22;9782;52.930;15.562;2022-11-25T09:30:48;5.80;99.90
18690;DHT22;9782;52.930;15.562;2022-11-25T09:33:18;5.90;99.90
18690;DHT22;9782;52.930;15.562;2022-11-25T09:35:45;5.90;99.90
18690;DHT22;9782;52.930;15.562;2022-11-25T09:38:13;6.00;99.90
18690;DHT22;9782;52.930;15.562;2022-11-25T09:40:44;6.00;99.90
18690;DHT22;9782;52.930;15.562;2022-11-25T09:43:26;6.10;99.90
18690;DHT22;9782;52.930;15.562;2022-11-25T09:46:24;6.20;99.90
18690;DHT22;9782;52.930;15.562;2022-11-25T09:49:30;6.30;1.00
18690;DHT22;9782;52.930;15.562;2022-11-25T09:52:12;6.30;1.00
18690;DHT22;9782;52.930;15.562;2022-11-25T09:54:43;6.30;1.00
18690;DHT22;9782;52.930;15.562;2022-11-25T09:57:22;6.30;1.00
18690;DHT22;9782;52.930;15.562;2022-11-25T10:00:03;6.30;1.00
18690;DHT22;9782;52.930;15.562;2022-11-25T10:02:36;6.40;1.00
18690;DHT22;9782;52.930;15.562;2022-11-25T10:05:08;6.40;1.00
18690;DHT22;9782;52.930;15.562;2022-11-25T10:07:41;6.50;1.00
18690;DHT22;9782;52.930;15.562;2022-11-25T10:10:17;6.50;1.00
18690;DHT22;9782;52.930;15.562;2022-11-25T10:12:46;6.50;1.00
18690;DHT22;9782;52.930;15.562;2022-11-25T10:15:19;6.50;1.00
18690;DHT22;9782;52.930;15.562;2022-11-25T10:17:48;6.50;1.00
18690;DHT22;9782;52.930;15.562;2022-11-25T10:20:20;6.50;1.00
18690;DHT22;9782;52.930;15.562;2022-11-25T10:22:50;6.50;1.00
18690;DHT22;9782;52.930;15.562;2022-11-25T10:25:20;6.50;1.00
18690;DHT22;9782;52.930;15.562;2022-11-25T10:27:50;6.50;1.00
18690;DHT22;9782;52.930;15.562;2022-11-25T10:30:22;6.50;1.00
18690;DHT22;9782;52.930;15.562;2022-11-25T10:32:52;6.60;1.00
18690;DHT22;9782;52.930;15.562;2022-11-25T10:35:26;6.60;1.00
18690;DHT22;9782;52.930;15.562;2022-11-25T10:37:57;6.60;1.00
18690;DHT22;9782;52.930;15.562;2022-11-25T10:40:25;6.70;1.00
18690;DHT22;9782;52.930;15.562;2022-11-25T10:42:52;6.70;1.00
18690;DHT22;9782;52.930;15.562;2022-11-25T10:45:29;6.80;1.00
18690;DHT22;9782;52.930;15.562;2022-11-25T10:48:12;6.90;1.00
18690;DHT22;9782;52.930;15.562;2022-11-25T10:50:53;6.90;1.00
18690;DHT22;9782;52.930;15.562;2022-11-25T10:53:24;7.00;1.00
18690;DHT22;9782;52.930;15.562;2022-11-25T10:56:00;7.10;1.00
18690;DHT22;9782;52.930;15.562;2022-11-25T10:58:30;7.20;1.00
18690;DHT22;9782;52.930;15.562;2022-11-25T11:01:12;7.20;1.00
18690;DHT22;9782;52.930;15.562;2022-11-25T11:03:41;7.30;1.00
18690;DHT22;9782;52.930;15.562;2022-11-25T11:06:30;7.30;1.00
18690;DHT22;9782;52.930;15.562;2022-11-25T11:08:58;7.40;1.00
18690;DHT22;9782;52.930;15.562;2022-11-25T11:11:25;7.60;1.00
18690;DHT22;9782;52.930;15.562;2022-11-25T11:14:11;7.70;1.00
18690;DHT22;9782;52.930;15.562;2022-11-25T11:16:42;7.90;1.00
18690;DHT22;9782;52.930;15.562;2022-11-25T11:19:24;8.00;99.90
18690;DHT22;9782;52.930;15.562;2022-11-25T11:21:56;7.90;99.90
18690;DHT22;9782;52.930;15.562;2022-11-25T11:24:27;7.90;99.90
18690;DHT22;9782;52.930;15.562;2022-11-25T11:27:10;7.90;99.90
18690;DHT22;9782;52.930;15.562;2022-11-25T11:29:40;7.90;99.90
18690;DHT22;9782;52.930;15.562;2022-11-25T11:32:21;7.70;78.00
18690;DHT22;9782;52.930;15.562;2022-11-25T11:34:57;7.50;99.90
18690;DHT22;9782;52.930;15.562;2022-11-25T11:37:40;7.40;99.90
18690;DHT22;9782;52.930;15.562;2022-11-25T11:40:21;7.20;99.90
18690;DHT22;9782;52.930;15.562;2022-11-25T11:43:01;7.10;99.90
18690;DHT22;9782;52.930;15.562;2022-11-25T11:45:40;7.00;99.90
18690;DHT22;9782;52.930;15.562;2022-11-25T11:48:25;6.90;99.90
18690;DHT22;9782;52.930;15.562;2022-11-25T11:51:00;6.80;1.00
18690;DHT22;9782;52.930;15.562;2022-11-25T11:53:32;6.80;1.00
18690;DHT22;9782;52.930;15.562;2022-11-25T11:56:08;6.80;1.00
18690;DHT22;9782;52.930;15.562;2022-11-25T11:58:52;6.70;1.00
18690;DHT22;9782;52.930;15.562;2022-11-25T12:01:33;6.60;1.00
18690;DHT22;9782;52.930;15.562;2022-11-25T12:04:15;6.60;1.00
18690;DHT22;9782;52.930;15.562;2022-11-25T12:06:48;6.60;1.00
18690;DHT22;9782;52.930;15.562;2022-11-25T12:09:20;6.60;1.00
18690;DHT22;9782;52.930;15.562;2022-11-25T12:11:53;6.60;1.00
18690;DHT22;9782;52.930;15.562;2022-11-25T12:14:31;6.60;1.00
18690;DHT22;9782;52.930;15.562;2022-11-25T12:17:02;6.60;1.00
18690;DHT22;9782;52.930;15.562;2022-11-25T12:19:40;6.70;1.00
18690;DHT22;9782;52.930;15.562;2022-11-25T12:22:13;6.80;1.00
18690;DHT22;9782;52.930;15.562;2022-11-25T12:24:48;6.80;1.00
18690;DHT22;9782;52.930;15.562;2022-11-25T12:27:20;6.80;1.00
18690;DHT22;9782;52.930;15.562;2022-11-25T12:29:51;6.90;1.00
18690;DHT22;9782;52.930;15.562;2022-11-25T12:32:50;7.00;1.00
18690;DHT22;9782;52.930;15.562;2022-11-25T12:35:27;7.00;1.00
18690;DHT22;9782;52.930;15.562;2022-11-25T12:38:01;7.10;1.00
18690;DHT22;9782;52.930;15.562;2022-11-25T12:40:34;7.00;1.00
18690;DHT22;9782;52.930;15.562;2022-11-25T12:43:16;7.00;1.00
18690;DHT22;9782;52.930;15.562;2022-11-25T12:45:52;6.90;1.00
18690;DHT22;9782;52.930;15.562;2022-11-25T12:48:21;6.80;99.90
18690;DHT22;9782;52.930;15.562;2022-11-25T12:50:55;6.80;1.00
18690;DHT22;9782;52.930;15.562;2022-11-25T12:53:31;6.60;1.00
18690;DHT22;9782;52.930;15.562;2022-11-25T12:56:02;6.60;1.00
18690;DHT22;9782;52.930;15.562;2022-11-25T12:58:43;6.60;1.00
18690;DHT22;9782;52.930;15.562;2022-11-25T13:01:28;6.50;1.00
18690;DHT22;9782;52.930;15.562;2022-11-25T13:04:28;6.50;1.00
18690;DHT22;9782;52.930;15.562;2022-11-25T13:07:23;6.60;1.00
18690;DHT22;9782;52.930;15.562;2022-11-25T13:13:26;6.70;1.00
18690;DHT22;9782;52.930;15.562;2022-11-25T13:15:57;6.70;1.00
18690;DHT22;9782;52.930;15.562;2022-11-25T13:18:29;6.70;1.00
18690;DHT22;9782;52.930;15.562;2022-11-25T13:21:05;6.70;1.00
18690;DHT22;9782;52.930;15.562;2022-11-25T13:23:44;6.60;1.00
18690;DHT22;9782;52.930;15.562;2022-11-25T13:26:47;6.50;1.00
18690;DHT22;9782;52.930;15.562;2022-11-25T13:32:38;6.40;1.00
18690;DHT22;9782;52.930;15.562;2022-11-25T13:35:51;6.30;1.00
18690;DHT22;9782;52.930;15.562;2022-11-25T13:39:04;6.30;1.00
18690;DHT22;9782;52.930;15.562;2022-11-25T13:41:35;6.30;1.00
18690;DHT22;9782;52.930;15.562;2022-11-25T13:44:05;6.30;1.00
18690;DHT22;9782;52.930;15.562;2022-11-25T13:46:40;6.20;1.00
18690;DHT22;9782;52.930;15.562;2022-11-25T13:49:22;6.20;1.00
18690;DHT22;9782;52.930;15.562;2022-11-25T13:51:51;6.10;81.00
18690;DHT22;9782;52.930;15.562;2022-11-25T13:54:24;6.10;69.00
18690;DHT22;9782;52.930;15.562;2022-11-25T13:57:26;6.10;99.90
18690;DHT22;9782;52.930;15.562;2022-11-25T13:59:56;6.10;99.90
18690;DHT22;9782;52.930;15.562;2022-11-25T14:02:36;6.00;99.90
18690;DHT22;9782;52.930;15.562;2022-11-25T14:05:35;6.00;99.90
18690;DHT22;9782;52.930;15.562;2022-11-25T14:08:13;5.90;99.90
18690;DHT22;9782;52.930;15.562;2022-11-25T14:10:52;5.90;99.90
18690;DHT22;9782;52.930;15.562;2022-11-25T14:13:40;5.80;99.90
18690;DHT22;9782;52.930;15.562;2022-11-25T14:16:32;5.80;99.90
18690;DHT22;9782;52.930;15.562;2022-11-25T14:19:16;5.80;1.00
18690;DHT22;9782;52.930;15.562;2022-11-25T14:21:56;5.80;1.00
18690;DHT22;9782;52.930;15.562;2022-11-25T14:24:33;5.80;1.00
18690;DHT22;9782;52.930;15.562;2022-11-25T14:27:04;5.80;1.00
18690;DHT22;9782;52.930;15.562;2022-11-25T14:29:40;5.80;1.00
18690;DHT22;9782;52.930;15.562;2022-11-25T14:32:11;5.70;1.00
18690;DHT22;9782;52.930;15.562;2022-11-25T14:34:40;5.70;1.00
18690;DHT22;9782;52.930;15.562;2022-11-25T14:37:12;5.80;1.00
18690;DHT22;9782;52.930;15.562;2022-11-25T14:39:45;5.80;1.00
18690;DHT22;9782;52.930;15.562;2022-11-25T14:42:16;5.80;1.00
18690;DHT22;9782;52.930;15.562;2022-11-25T14:44:47;5.80;1.00
18690;DHT22;9782;52.930;15.562;2022-11-25T14:47:14;5.90;1.00
18690;DHT22;9782;52.930;15.562;2022-11-25T14:49:48;5.90;1.00
18690;DHT22;9782;52.930;15.562;2022-11-25T14:52:17;5.90;1.00
18690;DHT22;9782;52.930;15.562;2022-11-25T14:54:45;5.90;1.00
18690;DHT22;9782;52.930;15.562;2022-11-25T14:57:13;5.90;99.90
18690;DHT22;9782;52.930;15.562;2022-11-25T14:59:44;5.80;1.00
18690;DHT22;9782;52.930;15.562;2022-11-25T15:02:24;5.80;1.00
18690;DHT22;9782;52.930;15.562;2022-11-25T15:04:51;5.70;1.00
18690;DHT22;9782;52.930;15.562;2022-11-25T15:07:20;5.70;1.00
18690;DHT22;9782;52.930;15.562;2022-11-25T15:09:48;5.60;1.00
18690;DHT22;9782;52.930;15.562;2022-11-25T15:12:18;5.70;1.00
18690;DHT22;9782;52.930;15.562;2022-11-25T15:14:51;5.60;1.00
18690;DHT22;9782;52.930;15.562;2022-11-25T15:17:24;5.60;1.00
18690;DHT22;9782;52.930;15.562;2022-11-25T15:19:52;5.60;1.00
18690;DHT22;9782;52.930;15.562;2022-11-25T15:22:20;5.60;1.00
18690;DHT22;9782;52.930;15.562;2022-11-25T15:24:49;5.60;1.00
18690;DHT22;9782;52.930;15.562;2022-11-25T15:27:19;5.60;1.00
18690;DHT22;9782;52.930;15.562;2022-11-25T15:29:47;5.60;1.00
18690;DHT22;9782;52.930;15.562;2022-11-25T15:32:17;5.60;1.00
18690;DHT22;9782;52.930;15.562;2022-11-25T15:34:46;5.50;1.00
18690;DHT22;9782;52.930;15.562;2022-11-25T15:37:14;5.50;1.00
18690;DHT22;9782;52.930;15.562;2022-11-25T15:39:41;5.50;1.00
18690;DHT22;9782;52.930;15.562;2022-11-25T15:42:15;5.50;1.00
18690;DHT22;9782;52.930;15.562;2022-11-25T15:44:49;5.40;1.00
18690;DHT22;9782;52.930;15.562;2022-11-25T15:47:22;5.50;1.00
18690;DHT22;9782;52.930;15.562;2022-11-25T15:49:57;5.40;1.00
18690;DHT22;9782;52.930;15.562;2022-11-25T15:52:29;5.40;1.00
18690;DHT22;9782;52.930;15.562;2022-11-25T15:55:00;5.40;1.00
18690;DHT22;9782;52.930;15.562;2022-11-25T15:57:31;5.40;1.00
18690;DHT22;9782;52.930;15.562;2022-11-25T16:00:14;5.30;1.00
18690;DHT22;9782;52.930;15.562;2022-11-25T16:02:50;5.20;48.60
18690;DHT22;9782;52.930;15.562;2022-11-25T16:05:30;5.20;78.00
18690;DHT22;9782;52.930;15.562;2022-11-25T16:08:19;5.20;99.90
18690;DHT22;9782;52.930;15.562;2022-11-25T16:10:54;5.20;99.90
18690;DHT22;9782;52.930;15.562;2022-11-25T16:13:26;5.20;99.90
18690;DHT22;9782;52.930;15.562;2022-11-25T16:15:58;5.20;99.90
18690;DHT22;9782;52.930;15.562;2022-11-25T16:18:33;5.20;99.90
18690;DHT22;9782;52.930;15.562;2022-11-25T16:21:04;5.20;99.90
18690;DHT22;9782;52.930;15.562;2022-11-25T16:23:33;5.10;99.90
18690;DHT22;9782;52.930;15.562;2022-11-25T16:26:04;5.20;99.90
18690;DHT22;9782;52.930;15.562;2022-11-25T16:28:32;5.10;99.90
18690;DHT22;9782;52.930;15.562;2022-11-25T16:31:00;5.10;99.90